Cerritos, California
Current Conditions -  °F | °C
As of 3:53 AM on Monday 24 Nov 2014 (Local Time) from KFUL Reporting Station
Clear Clear  
Wind Chill: 51°   Ceiling: Unl
Heat Index: 51°   Visibility: 10mi
Dew Point: 28°   Wind: 0mph
Humidity: 41%   Direction: NA
Pressure: 30.12"   Gusts: NA
Location:  33.87°N, 118.06°W
Report Text: KFUL 241153Z 00000KT 10SM CLR 11/M02 A3012 RMK AO2 SLP199 T01061022 10167 20100 58003
Loading
Personal Weather Stations






























Interactive Weather Map New forecast layout! Learn more

10-Day Weather Forecast

Advertisements
Track Severe Weather on mobile